Time;durP1;ratioP1;P1;durP2;ratioP2;P2;SDS_P1;SDS_P2;PMS_P1;PMS_P2;Temp;Humidity;BMP_temperature;BMP_pressure;BME280_temperature;BME280_humidity;BME280_pressure;Samples;Min_cycle;Max_cycle;Signal;HPM_P1;HPM_P2
2023/03/04 00:01:51;;;;;;;16.60;9.98;;;;;;;4.10;84.01;99997.38;10332673;28;20137;-89
2023/03/04 00:06:52;;;;;;;24.85;10.10;;;;;;;4.34;84.07;100022.50;10331262;28;20128;-86
2023/03/04 00:11:53;;;;;;;23.92;10.63;;;;;;;3.62;84.53;99942.03;10332532;28;20108;-90
2023/03/04 00:16:53;;;;;;;27.38;10.85;;;;;;;3.54;84.58;99942.72;10333002;28;20053;-89
2023/03/04 00:21:54;;;;;;;16.45;10.40;;;;;;;3.78;85.61;99991.47;10333352;28;20049;-88
2023/03/04 00:26:55;;;;;;;13.98;10.07;;;;;;;4.05;85.91;100041.63;10347967;28;20045;-89
2023/03/04 00:31:56;;;;;;;21.90;10.50;;;;;;;4.02;86.07;100060.31;10332664;28;20053;-89
2023/03/04 00:37:00;;;;;;;22.90;10.52;;;;;;;3.35;86.21;99947.88;10332772;28;20125;-89
2023/03/04 00:42:00;;;;;;;18.67;10.40;;;;;;;3.78;86.66;100025.63;10332731;28;20133;-88
2023/03/04 00:47:01;;;;;;;17.10;9.20;;;;;;;3.37;87.16;99945.97;10347304;28;20133;-89
2023/03/04 00:52:02;;;;;;;17.30;10.30;;;;;;;3.87;87.80;100014.31;10332027;28;20112;-87
2023/03/04 00:57:03;;;;;;;21.83;10.48;;;;;;;3.73;87.45;100019.94;10332155;28;20088;-89
2023/03/04 01:02:04;;;;;;;20.80;10.70;;;;;;;3.02;88.10;99905.19;10332173;28;20042;-89
2023/03/04 01:07:04;;;;;;;16.13;10.75;;;;;;;3.30;88.20;99947.47;10331415;28;20050;-86
2023/03/04 01:12:05;;;;;;;20.42;10.80;;;;;;;3.69;87.96;99994.91;10331757;28;20144;-89
2023/03/04 01:17:06;;;;;;;21.05;11.63;;;;;;;3.88;88.16;100027.31;10331057;28;20129;-89
2023/03/04 01:22:07;;;;;;;17.20;11.15;;;;;;;2.94;87.84;99884.84;10331526;28;20118;-89
2023/03/04 01:27:08;;;;;;;18.55;11.95;;;;;;;3.54;88.56;99986.53;10339003;28;20050;-85
2023/03/04 01:32:09;;;;;;;26.40;11.77;;;;;;;3.01;89.24;99902.69;10339647;28;20125;-88
2023/03/04 01:37:12;;;;;;;18.63;11.20;;;;;;;3.72;90.41;100013.03;10337328;28;20030;-88
2023/03/04 01:42:19;;;;;;;20.75;11.95;;;;;;;3.07;90.83;99902.16;10338932;28;20049;-89
2023/03/04 01:47:23;;;;;;;17.77;11.13;;;;;;;3.47;90.98;99994.13;10338897;28;20035;-88
2023/03/04 01:52:26;;;;;;;17.15;10.98;;;;;;;3.00;91.09;99919.41;10338299;28;20054;-87
2023/03/04 01:57:26;;;;;;;16.08;11.13;;;;;;;3.43;90.91;99988.28;10337858;28;20100;-87
2023/03/04 02:02:27;;;;;;;18.33;10.80;;;;;;;2.98;90.84;99915.09;10336215;28;20066;-88
2023/03/04 02:07:28;;;;;;;16.70;11.00;;;;;;;3.81;90.72;100056.91;10337645;28;20069;-87
2023/03/04 02:12:29;;;;;;;16.55;10.80;;;;;;;3.61;91.31;100022.63;10337661;28;20062;-87
2023/03/04 02:17:31;;;;;;;17.17;11.25;;;;;;;3.77;91.68;100047.59;10337028;28;20046;-87
2023/03/04 02:22:38;;;;;;;19.23;11.57;;;;;;;3.27;91.95;99966.09;10336577;28;20050;-88
2023/03/04 02:27:39;;;;;;;17.77;12.40;;;;;;;3.91;92.31;100088.47;10336819;28;20049;-88
2023/03/04 02:32:39;;;;;;;18.15;11.02;;;;;;;3.84;91.64;100073.22;10336887;28;20445;-88
2023/03/04 02:37:40;;;;;;;19.65;13.18;;;;;;;2.38;91.81;99843.25;10335276;28;20380;-87
2023/03/04 02:42:43;;;;;;;18.90;12.52;;;;;;;3.98;92.08;100106.22;10336760;28;20042;-88
2023/03/04 02:47:44;;;;;;;20.77;12.57;;;;;;;3.81;91.33;100052.47;10335871;28;20042;-87
2023/03/04 02:52:45;;;;;;;19.27;12.32;;;;;;;3.55;91.28;100010.03;10335982;28;20526;-87
2023/03/04 02:57:46;;;;;;;21.92;12.38;;;;;;;3.66;91.13;100009.94;10329421;28;20050;-87
2023/03/04 03:02:46;;;;;;;17.45;11.82;;;;;;;3.87;90.63;100037.97;10294831;28;20534;-87
2023/03/04 03:07:47;;;;;;;18.80;11.80;;;;;;;3.24;90.89;99934.88;10294429;28;20062;-87
2023/03/04 03:12:48;;;;;;;18.40;11.52;;;;;;;4.17;90.59;100063.41;10295426;28;20590;-88
2023/03/04 03:17:49;;;;;;;19.67;11.43;;;;;;;3.29;90.65;99930.88;10294824;28;20419;-88
2023/03/04 03:22:50;;;;;;;19.38;11.52;;;;;;;3.39;90.18;99949.31;10294628;28;20041;-85
2023/03/04 03:27:50;;;;;;;19.83;12.73;;;;;;;2.52;90.57;99823.75;10294340;28;20050;-87
2023/03/04 03:32:51;;;;;;;20.85;12.90;;;;;;;3.37;90.52;99967.78;10293657;28;20038;-87
2023/03/04 03:37:52;;;;;;;17.45;12.15;;;;;;;3.93;90.92;100074.25;10293913;28;20121;-87
2023/03/04 03:42:53;;;;;;;22.45;13.05;;;;;;;3.69;91.06;100034.31;10319946;28;20499;-88
2023/03/04 03:47:53;;;;;;;17.63;10.73;;;;;;;3.32;91.06;99987.53;10309684;28;20051;-87
2023/03/04 03:52:55;;;;;;;19.90;11.63;;;;;;;3.02;91.35;99949.81;10293975;28;20045;-87
2023/03/04 03:57:56;;;;;;;18.27;11.43;;;;;;;3.61;91.59;100041.03;10293822;28;20047;-87
2023/03/04 04:02:58;;;;;;;17.35;11.55;;;;;;;2.44;92.29;99862.88;10293005;28;20057;-88
2023/03/04 04:07:59;;;;;;;17.77;12.25;;;;;;;3.75;91.95;100075.81;10292187;28;20067;-88
2023/03/04 04:13:00;;;;;;;17.73;12.15;;;;;;;3.77;92.90;100087.00;10292718;28;20047;-87
2023/03/04 04:18:01;;;;;;;16.02;11.20;;;;;;;3.86;92.53;100081.00;10290868;28;20053;-87
2023/03/04 04:23:02;;;;;;;15.60;9.98;;;;;;;3.89;92.93;100080.72;10292557;28;20133;-87
2023/03/04 04:28:03;;;;;;;21.20;11.40;;;;;;;2.88;93.39;99929.13;10292930;28;20047;-85
2023/03/04 04:33:04;;;;;;;20.60;12.07;;;;;;;4.03;92.98;100117.16;10292300;28;20054;-87
2023/03/04 04:38:06;;;;;;;18.70;12.07;;;;;;;4.04;92.95;100115.38;10292609;28;20039;-87
2023/03/04 04:43:07;;;;;;;17.38;11.75;;;;;;;3.82;92.59;100092.72;10290888;28;20042;-88
2023/03/04 04:48:08;;;;;;;18.17;11.55;;;;;;;3.95;92.24;100100.38;10292489;28;20043;-86
2023/03/04 04:53:12;;;;;;;22.92;12.00;;;;;;;4.19;92.15;100147.38;10291060;28;20062;-87
2023/03/04 04:58:13;;;;;;;16.83;11.00;;;;;;;3.91;91.41;100089.28;10295409;28;20042;-88
2023/03/04 05:03:13;;;;;;;16.63;11.43;;;;;;;4.28;91.69;100150.06;10325886;28;20039;-87
2023/03/04 05:08:14;;;;;;;18.95;11.80;;;;;;;3.69;91.00;100043.00;10339937;28;20066;-87
2023/03/04 05:13:15;;;;;;;16.90;10.82;;;;;;;3.84;91.64;100081.09;10340798;28;20403;-87
2023/03/04 05:18:16;;;;;;;24.13;16.25;;;;;;;3.72;91.45;100070.81;10340539;28;20057;-87
2023/03/04 05:23:17;;;;;;;20.75;11.93;;;;;;;4.27;91.31;100163.34;10340023;28;20046;-88
2023/03/04 05:28:18;;;;;;;23.13;12.43;;;;;;;4.53;91.98;100209.28;10340692;28;20105;-86
2023/03/04 05:33:19;;;;;;;19.33;11.38;;;;;;;4.45;92.30;100179.31;10341576;28;20050;-87
2023/03/04 05:38:20;;;;;;;18.45;12.15;;;;;;;4.33;91.92;100157.53;10344501;28;20057;-86
2023/03/04 05:43:22;;;;;;;19.77;12.02;;;;;;;4.54;92.60;100192.50;10339565;28;20054;-87
2023/03/04 05:48:23;;;;;;;23.60;13.40;;;;;;;4.86;92.24;100225.72;10338702;28;20038;-86
2023/03/04 05:53:24;;;;;;;17.85;11.15;;;;;;;4.26;92.26;100109.09;10339395;28;20068;-86
2023/03/04 05:58:25;;;;;;;19.70;11.35;;;;;;;4.77;91.79;100174.72;10339894;28;20046;-86
2023/03/04 06:03:26;;;;;;;20.75;12.32;;;;;;;4.91;91.95;100183.22;10324707;28;20518;-87
2023/03/04 06:08:27;;;;;;;15.93;10.98;;;;;;;5.18;91.97;100222.06;10352584;28;20066;-82
2023/03/04 06:13:27;;;;;;;17.00;11.77;;;;;;;4.86;91.50;100172.25;10321765;28;20149;-82
2023/03/04 06:18:28;;;;;;;19.98;12.25;;;;;;;4.26;91.69;100065.22;10314877;28;20107;-85
2023/03/04 06:23:29;;;;;;;17.80;11.43;;;;;;;4.80;91.84;100155.22;10321598;28;20043;-85
2023/03/04 06:28:30;;;;;;;16.30;10.82;;;;;;;4.71;92.03;100138.44;10295208;28;20038;-85
2023/03/04 06:33:31;;;;;;;20.20;12.82;;;;;;;4.34;91.43;100067.19;10326011;28;20049;-85
2023/03/04 06:38:32;;;;;;;20.70;13.40;;;;;;;5.23;92.23;100204.03;10299940;28;20422;-87
2023/03/04 06:43:33;;;;;;;20.38;12.43;;;;;;;4.25;92.07;100025.94;10311728;28;20035;-87
2023/03/04 06:48:34;;;;;;;20.30;13.50;;;;;;;4.93;92.20;100141.78;10296001;28;20042;-87
2023/03/04 06:53:36;;;;;;;20.58;13.40;;;;;;;5.18;91.94;100149.16;10296162;28;20046;-84
2023/03/04 06:58:36;;;;;;;22.75;13.23;;;;;;;4.70;91.42;100049.13;10294403;28;20046;-84
2023/03/04 07:03:37;;;;;;;20.95;13.13;;;;;;;4.80;90.67;100034.16;10296337;28;20054;-84
2023/03/04 07:08:39;;;;;;;22.33;14.68;;;;;;;6.30;90.90;100257.56;10294098;28;20478;-83
2023/03/04 07:13:40;;;;;;;19.95;13.77;;;;;;;6.34;90.81;100261.59;10294056;28;20486;-84
2023/03/04 07:18:40;;;;;;;19.52;12.50;;;;;;;5.19;90.32;100071.81;10294617;28;20042;-84
2023/03/04 07:23:41;;;;;;;21.45;13.15;;;;;;;6.48;90.89;100230.44;10293680;28;20411;-85
2023/03/04 07:28:43;;;;;;;19.08;12.70;;;;;;;6.43;89.88;100222.94;10293165;28;20038;-85
2023/03/04 07:33:44;;;;;;;19.95;12.98;;;;;;;5.74;89.67;100108.03;10293917;28;20500;-84
2023/03/04 07:38:49;;;;;;;17.75;11.70;;;;;;;6.75;90.59;100242.84;10301611;28;20031;-87
2023/03/04 07:43:50;;;;;;;19.27;12.30;;;;;;;6.21;89.99;100123.91;10292051;28;20137;-84
2023/03/04 07:48:51;;;;;;;16.67;11.15;;;;;;;6.80;90.15;100209.75;10307087;28;20050;-84
2023/03/04 07:53:54;;;;;;;18.95;12.25;;;;;;;6.96;90.12;100227.56;10315535;28;20038;-87
2023/03/04 07:58:55;;;;;;;20.20;12.67;;;;;;;6.26;89.77;100087.38;10291169;28;20510;-87
2023/03/04 08:03:57;;;;;;;19.33;13.25;;;;;;;7.29;89.63;100215.53;10299979;28;20045;-89
2023/03/04 08:09:05;;;;;;;15.82;12.20;;;;;;;6.82;90.08;100099.53;10292343;28;20055;-87
2023/03/04 08:14:06;;;;;;;21.25;12.35;;;;;;;7.19;88.75;100129.44;10293460;28;20454;-88
2023/03/04 08:19:07;;;;;;;15.85;11.35;;;;;;;6.70;88.98;100074.34;10292803;28;20066;-89
2023/03/04 08:24:10;;;;;;;16.05;11.73;;;;;;;7.48;90.04;100219.88;10293400;28;20045;-86
2023/03/04 08:29:13;;;;;;;18.05;11.43;;;;;;;7.37;91.02;100208.69;10290591;28;20050;-77
2023/03/04 08:34:15;;;;;;;16.20;10.50;;;;;;;7.26;91.02;100205.28;10305853;28;20058;-77
2023/03/04 08:39:17;;;;;;;11.65;6.97;;;;;;;6.70;91.08;100118.34;10332021;28;20453;-76
2023/03/04 08:44:18;;;;;;;8.68;4.38;;;;;;;6.85;91.67;100133.56;10326355;28;20046;-80
2023/03/04 08:49:19;;;;;;;6.38;3.40;;;;;;;6.95;92.12;100159.06;10326864;28;20101;-82
2023/03/04 08:54:19;;;;;;;6.18;3.17;;;;;;;7.67;91.97;100229.47;10331141;28;20133;-71
2023/03/04 08:59:20;;;;;;;5.03;3.05;;;;;;;7.69;91.37;100201.06;10313986;28;20061;-82
2023/03/04 09:04:26;;;;;;;7.28;3.63;;;;;;;6.87;90.47;100056.81;10289595;28;20392;-84
2023/03/04 09:09:50;;;;;;;6.25;3.38;;;;;;;7.86;90.81;100209.94;10290202;28;20059;-85
2023/03/04 09:15:30;;;;;;;4.50;2.53;;;;;;;7.76;90.68;100167.72;10280514;28;20518;-77
2023/03/04 09:20:33;;;;;;;4.20;2.40;;;;;;;6.52;89.83;100004.84;10291144;28;20039;-78
2023/03/04 09:25:35;;;;;;;4.97;2.42;;;;;;;7.88;90.44;100226.50;10289588;28;20035;-77
2023/03/04 09:30:35;;;;;;;3.28;1.98;;;;;;;7.39;90.02;100183.78;10289217;28;20055;-81
2023/03/04 09:35:39;;;;;;;3.50;2.05;;;;;;;7.62;89.12;100225.59;10290867;28;20522;-81
2023/03/04 09:40:47;;;;;;;3.17;1.73;;;;;;;7.47;88.00;100209.44;10291333;28;20039;-80
2023/03/04 09:45:55;;;;;;;4.47;2.35;;;;;;;7.54;88.56;100210.53;10294852;28;20142;-82
2023/03/04 09:51:19;;;;;;;3.95;2.42;;;;;;;7.63;87.73;100228.13;10296146;28;20385;-80
2023/03/04 09:56:21;;;;;;;4.35;2.95;;;;;;;7.12;87.78;100155.63;10294879;28;20098;-74
2023/03/04 10:01:30;;;;;;;4.90;3.35;;;;;;;7.38;87.38;100219.09;10257207;28;20069;-75
2023/03/04 10:06:31;;;;;;;4.97;4.18;;;;;;;6.68;87.41;100152.84;10253480;28;20496;-75
2023/03/04 10:11:44;;;;;;;7.03;4.93;;;;;;;6.94;86.41;100200.50;10254672;28;20090;-74
2023/03/04 10:16:52;;;;;;;7.70;5.03;;;;;;;6.90;84.51;100238.72;10255135;29;20138;-79
2023/03/04 10:21:53;;;;;;;7.97;5.50;;;;;;;5.86;84.55;100106.94;10255885;29;20051;-79
2023/03/04 10:27:01;;;;;;;8.77;6.28;;;;;;;5.97;83.06;100144.66;10256414;29;20051;-80
2023/03/04 10:32:03;;;;;;;8.57;6.05;;;;;;;6.44;82.46;100242.25;10257116;29;20078;-82
2023/03/04 10:37:08;;;;;;;9.63;7.20;;;;;;;6.62;82.01;100264.28;10256553;29;20035;-83
2023/03/04 10:42:15;;;;;;;9.57;6.80;;;;;;;6.78;82.44;100271.59;10257145;29;20109;-84
2023/03/04 10:47:16;;;;;;;15.82;6.60;;;;;;;6.09;81.78;100164.63;10256343;29;20043;-83
2023/03/04 10:52:30;;;;;;;8.50;5.97;;;;;;;6.84;80.89;100284.19;10255738;29;20039;-84
2023/03/04 10:57:37;;;;;;;9.02;6.57;;;;;;;6.23;80.99;100216.91;10259357;28;20057;-82
2023/03/04 11:02:38;;;;;;;8.77;6.40;;;;;;;6.63;81.92;100282.59;10302597;28;20053;-77
2023/03/04 11:07:42;;;;;;;8.35;6.88;;;;;;;5.86;81.81;100177.25;10295206;28;20070;-78
2023/03/04 11:12:47;;;;;;;;;;;;;;;6.76;81.30;100281.44;10339501;28;20096;-83
2023/03/04 11:17:52;;;;;;;8.73;7.05;;;;;;;6.77;83.32;100283.97;10318851;28;20012;-83
2023/03/04 11:22:55;;;;;;;9.48;7.10;;;;;;;5.21;83.94;100051.44;10306755;28;20050;-84
2023/03/04 11:28:21;;;;;;;8.02;6.30;;;;;;;6.33;86.29;100207.16;10264337;28;20541;-77
2023/03/04 11:33:27;;;;;;;7.78;5.93;;;;;;;6.20;86.22;100184.72;10291276;28;20078;-80
2023/03/04 11:38:47;;;;;;;10.05;6.68;;;;;;;6.57;88.65;100246.22;10291613;28;20043;-82
2023/03/04 11:43:48;;;;;;;14.70;8.68;;;;;;;6.65;86.76;100240.25;10292954;28;20038;-83
2023/03/04 11:49:15;;;;;;;12.73;6.85;;;;;;;6.79;88.06;100268.81;10292488;28;20050;-80
2023/03/04 11:54:28;;;;;;;7.45;5.82;;;;;;;5.57;86.91;100080.66;10293640;28;20141;-77
2023/03/04 11:59:50;;;;;;;8.48;5.57;;;;;;;6.24;87.48;100170.25;10291944;28;20967;-81
2023/03/04 12:04:56;;;;;;;8.40;6.30;;;;;;;6.61;87.29;100220.38;10291192;28;20422;-84
2023/03/04 12:10:00;;;;;;;9.23;5.88;;;;;;;7.25;86.37;100279.41;10289910;28;20070;-79
2023/03/04 12:15:36;;;;;;;12.82;6.68;;;;;;;6.42;85.19;100128.94;10290707;28;20050;-83
2023/03/04 12:21:15;;;;;;;9.48;6.68;;;;;;;7.23;85.75;100258.41;10290944;28;20062;-79
2023/03/04 12:27:00;;;;;;;14.48;10.18;;;;;;;7.47;86.04;100276.34;10291177;28;20043;-77
2023/03/04 12:32:22;;;;;;;8.27;6.25;;;;;;;7.29;85.23;100252.53;10281657;28;20061;-81
2023/03/04 12:37:48;;;;;;;9.00;5.75;;;;;;;6.94;84.60;100205.78;10289937;28;20129;-81
2023/03/04 12:43:02;;;;;;;11.32;5.15;;;;;;;6.54;84.49;100151.50;10304476;28;20519;-77
2023/03/04 12:48:34;;;;;;;9.63;5.18;;;;;;;7.21;84.13;100243.69;10291613;28;20499;-84
2023/03/04 12:54:04;;;;;;;15.13;6.00;;;;;;;7.61;84.26;100248.56;10291121;28;20133;-83
2023/03/04 12:59:11;;;;;;;13.10;6.63;;;;;;;7.43;83.16;100189.59;10290936;28;20074;-84
2023/03/04 13:04:37;;;;;;;11.10;7.45;;;;;;;7.77;83.23;100246.06;10292805;28;20050;-77
2023/03/04 13:09:48;;;;;;;12.57;7.85;;;;;;;7.49;84.11;100199.56;10290273;28;20062;-78
2023/03/04 13:15:06;;;;;;;13.85;9.27;;;;;;;8.01;83.25;100252.53;10290286;28;20050;-77
2023/03/04 13:20:42;;;;;;;11.43;9.20;;;;;;;7.96;82.35;100258.31;10294098;28;20047;-76
2023/03/04 13:25:46;;;;;;;13.35;10.93;;;;;;;7.71;83.10;100248.50;10249229;28;20066;-78
2023/03/04 13:30:54;;;;;;;13.73;11.75;;;;;;;7.04;82.09;100150.25;10313094;28;20049;-82
2023/03/04 13:36:19;;;;;;;17.27;14.02;;;;;;;6.82;81.68;100154.13;10298015;28;20046;-79
2023/03/04 13:41:23;;;;;;;15.50;13.50;;;;;;;6.80;81.87;100170.13;10298104;28;20514;-79
2023/03/04 13:46:26;;;;;;;16.17;13.20;;;;;;;6.65;81.20;100157.59;10297427;28;20590;-79
2023/03/04 13:51:45;;;;;;;15.95;14.07;;;;;;;6.60;81.33;100143.00;10297280;28;20053;-80
2023/03/04 13:56:46;;;;;;;13.25;11.75;;;;;;;7.45;81.29;100256.31;10297840;28;20047;-82
2023/03/04 14:02:10;;;;;;;13.57;11.52;;;;;;;7.48;80.99;100253.41;10297141;28;20542;-79
2023/03/04 14:07:24;;;;;;;14.50;11.80;;;;;;;6.82;82.04;100162.06;10297166;28;20557;-78
2023/03/04 14:12:30;;;;;;;15.93;11.63;;;;;;;7.42;81.65;100277.78;10295305;28;20038;-81
2023/03/04 14:17:35;;;;;;;14.02;9.95;;;;;;;7.36;82.45;100267.78;10296592;28;20038;-81
2023/03/04 14:22:40;;;;;;;13.68;9.45;;;;;;;6.21;82.12;100094.06;10296306;28;20042;-81
2023/03/04 14:27:41;;;;;;;11.95;9.70;;;;;;;5.93;81.72;100063.22;10295432;28;20063;-80
2023/03/04 14:32:42;;;;;;;10.48;9.10;;;;;;;7.04;82.38;100269.94;10296781;28;20124;-82
2023/03/04 14:37:48;;;;;;;11.32;9.82;;;;;;;7.08;83.22;100271.28;10296319;28;20045;-81
2023/03/04 14:42:55;;;;;;;11.00;9.18;;;;;;;6.79;82.84;100244.19;10295890;28;20051;-81
2023/03/04 14:48:05;;;;;;;12.27;9.02;;;;;;;6.63;83.36;100218.44;10297611;28;20137;-81
2023/03/04 14:53:06;;;;;;;11.35;9.27;;;;;;;6.85;82.61;100248.91;10301776;28;20109;-81
2023/03/04 14:58:18;;;;;;;12.13;8.77;;;;;;;6.63;83.54;100232.44;10294759;28;20384;-81
2023/03/04 15:03:24;;;;;;;9.32;8.10;;;;;;;6.85;83.67;100293.81;10297375;28;20041;-81
2023/03/04 15:08:29;;;;;;;10.70;8.88;;;;;;;6.80;83.98;100298.69;10315573;28;20069;-82
2023/03/04 15:13:48;;;;;;;15.70;9.65;;;;;;;6.81;84.52;100295.06;10315803;28;20598;-81
2023/03/04 15:19:28;;;;;;;12.05;8.88;;;;;;;6.18;83.89;100198.84;10294260;28;20130;-81
2023/03/04 15:24:29;;;;;;;12.88;9.38;;;;;;;6.54;83.64;100280.00;10293863;28;20566;-81
2023/03/04 15:29:30;;;;;;;11.93;9.07;;;;;;;6.55;83.61;100279.88;10294133;28;20039;-81
2023/03/04 15:34:31;;;;;;;10.98;9.25;;;;;;;6.52;83.47;100289.84;10294567;28;20047;-79
2023/03/04 15:39:31;;;;;;;11.45;9.25;;;;;;;6.21;83.72;100245.22;10293109;28;20489;-82
2023/03/04 15:44:32;;;;;;;11.45;9.13;;;;;;;6.30;83.65;100262.00;10288813;28;20137;-86
2023/03/04 15:49:34;;;;;;;11.57;9.68;;;;;;;6.35;83.97;100307.28;10292079;28;20491;-82
2023/03/04 15:54:35;;;;;;;10.70;8.93;;;;;;;6.30;83.69;100302.41;10293549;28;20434;-84
2023/03/04 15:59:35;;;;;;;11.63;9.23;;;;;;;5.63;83.76;100195.19;10305766;28;20046;-83
2023/03/04 16:04:37;;;;;;;21.17;9.07;;;;;;;6.01;83.84;100264.69;10292923;28;20038;-84
2023/03/04 16:09:38;;;;;;;11.73;8.73;;;;;;;5.55;83.83;100185.34;10290277;28;20058;-84
2023/03/04 16:14:40;;;;;;;12.23;8.77;;;;;;;5.50;83.65;100171.75;10292455;28;20051;-84
2023/03/04 16:19:41;;;;;;;10.70;9.05;;;;;;;6.01;83.80;100272.59;10292034;28;20097;-84
2023/03/04 16:24:42;;;;;;;10.68;9.27;;;;;;;5.35;83.64;100152.88;10292837;28;20100;-82
2023/03/04 16:29:43;;;;;;;11.25;9.27;;;;;;;6.59;83.78;100341.13;10291508;28;20061;-82
2023/03/04 16:34:44;;;;;;;11.05;9.20;;;;;;;6.49;84.28;100320.03;10291251;28;20050;-82
2023/03/04 16:39:48;;;;;;;10.55;8.68;;;;;;;5.45;83.69;100148.47;10291091;28;20047;-82
2023/03/04 16:44:49;;;;;;;13.48;9.05;;;;;;;6.20;83.96;100267.31;10291633;28;20039;-82
2023/03/04 16:49:49;;;;;;;12.30;9.32;;;;;;;6.06;84.20;100236.94;10291306;28;20043;-84
2023/03/04 16:54:51;;;;;;;13.65;8.40;;;;;;;6.52;84.38;100306.56;10288841;28;20042;-82
2023/03/04 16:59:53;;;;;;;10.65;8.48;;;;;;;5.19;84.45;100086.78;10289281;28;20507;-82
2023/03/04 17:04:55;;;;;;;11.38;8.95;;;;;;;5.71;84.66;100201.44;10305048;28;20034;-81
2023/03/04 17:09:56;;;;;;;11.20;8.43;;;;;;;5.14;84.68;100089.00;10289987;28;20062;-82
2023/03/04 17:14:57;;;;;;;9.77;8.40;;;;;;;5.64;85.16;100173.97;10289170;28;20039;-82
2023/03/04 17:19:57;;;;;;;11.88;8.32;;;;;;;5.88;85.48;100199.03;10291024;28;20055;-80
2023/03/04 17:25:01;;;;;;;10.43;8.40;;;;;;;5.61;84.95;100152.34;10290303;28;20129;-80
2023/03/04 17:30:05;;;;;;;10.93;8.57;;;;;;;5.68;84.76;100156.06;10287980;28;20138;-82
2023/03/04 17:35:07;;;;;;;13.32;8.73;;;;;;;6.36;84.93;100288.66;10287593;28;20043;-84
2023/03/04 17:40:12;;;;;;;11.73;9.15;;;;;;;6.23;85.40;100272.31;10288042;28;20052;-83
2023/03/04 17:45:30;;;;;;;;;;;;;;;;;;;;;
2023/03/04 17:50:35;;;;;;;11.30;8.23;;;;;;;4.34;85.34;100019.84;10289239;28;20046;-81
2023/03/04 17:56:02;;;;;;;11.80;8.35;;;;;;;5.34;87.21;100174.94;10289015;28;20058;-82
2023/03/04 18:19:29;;;;;;;;;;;;;;;6.06;85.44;100284.41;10449754;28;20479;-82
2023/03/04 18:24:30;;;;;;;9.23;5.05;;;;;;;4.10;85.22;99992.13;10459467;28;20007;-83
2023/03/04 18:29:33;;;;;;;8.40;6.05;;;;;;;6.11;85.14;100287.44;10458846;28;20053;-73
2023/03/04 18:34:33;;;;;;;7.65;5.65;;;;;;;5.58;85.58;100194.78;10441605;28;20489;-82
2023/03/04 18:39:34;;;;;;;7.00;5.45;;;;;;;6.08;85.24;100271.09;10460816;28;20140;-83
2023/03/04 18:44:35;;;;;;;7.13;5.38;;;;;;;6.11;85.54;100289.25;10459802;28;20153;-83
2023/03/04 18:49:42;;;;;;;8.38;5.63;;;;;;;5.24;85.74;100160.94;10457708;28;20163;-82
2023/03/04 18:54:43;;;;;;;7.43;5.53;;;;;;;5.85;85.44;100262.59;10457151;28;20045;-82
2023/03/04 18:59:48;;;;;;;6.38;4.80;;;;;;;5.36;85.57;100195.88;10458159;28;20524;-83
2023/03/04 19:04:53;;;;;;;7.05;5.30;;;;;;;5.38;85.64;100194.75;10458630;28;20146;-84
2023/03/04 19:09:54;;;;;;;7.20;5.10;;;;;;;4.55;85.08;100041.63;10448682;28;20103;-83
2023/03/04 19:14:55;;;;;;;6.75;4.60;;;;;;;6.06;84.95;100287.03;10457629;28;20072;-83
2023/03/04 19:19:55;;;;;;;7.15;5.57;;;;;;;5.96;84.67;100282.75;10438478;28;20063;-81
2023/03/04 19:24:56;;;;;;;7.88;5.95;;;;;;;4.64;85.12;100103.09;10457388;28;20059;-81
2023/03/04 19:29:57;;;;;;;8.85;5.78;;;;;;;4.99;85.79;100178.91;10456980;28;20056;-79
2023/03/04 19:34:58;;;;;;;10.02;6.05;;;;;;;4.88;86.17;100176.44;10457164;28;20055;-78
2023/03/04 19:40:00;;;;;;;6.93;5.45;;;;;;;5.63;86.50;100276.88;10456848;28;20110;-80
2023/03/04 19:45:02;;;;;;;7.82;6.20;;;;;;;5.37;86.62;100223.88;10457001;28;20049;-85
2023/03/04 19:50:05;;;;;;;8.40;5.82;;;;;;;5.52;86.50;100263.84;10457067;28;20742;-84
2023/03/04 19:55:06;;;;;;;9.60;6.82;;;;;;;4.63;86.62;100135.63;10455773;28;20487;-84
2023/03/04 20:00:09;;;;;;;10.65;6.70;;;;;;;4.82;87.08;100203.28;10454696;28;20049;-86
2023/03/04 20:05:09;;;;;;;9.40;6.68;;;;;;;4.27;86.75;100129.97;10425246;28;20059;-85
2023/03/04 20:10:11;;;;;;;10.07;6.47;;;;;;;5.17;87.91;100249.34;10413253;28;20053;-85
2023/03/04 20:15:12;;;;;;;9.85;7.13;;;;;;;5.00;87.00;100185.88;10425297;28;20079;-84
2023/03/04 20:20:14;;;;;;;10.25;6.40;;;;;;;5.08;87.29;100181.72;10412202;28;20492;-86
2023/03/04 20:25:15;;;;;;;7.47;5.85;;;;;;;4.66;86.57;100130.09;10413855;28;20049;-85
2023/03/04 20:30:16;;;;;;;6.35;4.85;;;;;;;4.85;87.54;100187.22;10413506;28;20054;-85
2023/03/04 20:35:17;;;;;;;6.03;4.97;;;;;;;4.71;87.53;100166.53;10419459;28;20045;-85
2023/03/04 20:40:18;;;;;;;15.13;4.95;;;;;;;4.95;87.59;100219.66;10444093;28;20511;-85
2023/03/04 20:45:20;;;;;;;6.75;5.07;;;;;;;3.49;87.46;100007.94;10413306;28;20486;-84
2023/03/04 20:50:20;;;;;;;9.38;5.45;;;;;;;4.59;88.24;100231.59;10412701;28;20060;-84
2023/03/04 20:55:22;;;;;;;8.52;5.20;;;;;;;4.38;88.89;100215.03;10413318;28;20505;-84
2023/03/04 21:00:23;;;;;;;7.82;5.60;;;;;;;4.00;89.22;100188.38;10413209;28;20049;-85
2023/03/04 21:05:24;;;;;;;10.40;6.03;;;;;;;3.52;89.75;100099.59;10412817;28;20091;-85
2023/03/04 21:10:25;;;;;;;7.00;4.95;;;;;;;4.25;90.21;100212.63;10413111;28;20056;-85
2023/03/04 21:15:25;;;;;;;7.88;5.43;;;;;;;3.72;89.92;100133.88;10432244;28;20057;-84
2023/03/04 21:20:26;;;;;;;8.00;5.43;;;;;;;3.19;89.46;100093.56;10439361;28;20452;-85
2023/03/04 21:25:27;;;;;;;7.78;5.90;;;;;;;1.96;89.57;99900.00;10413204;28;20573;-84
2023/03/04 21:30:28;;;;;;;15.02;9.90;;;;;;;3.91;90.08;100209.34;10416050;28;20061;-84
2023/03/04 21:35:29;;;;;;;13.20;9.23;;;;;;;3.00;89.45;100072.44;10412609;28;20545;-84
2023/03/04 21:40:29;;;;;;;8.27;6.57;;;;;;;3.83;90.28;100215.28;10413490;28;20053;-85
2023/03/04 21:45:30;;;;;;;9.48;5.85;;;;;;;3.61;89.96;100201.25;10420112;28;20096;-85
2023/03/04 21:50:31;;;;;;;8.00;6.30;;;;;;;3.14;89.86;100140.38;10426552;28;20488;-85
2023/03/04 21:55:31;;;;;;;8.82;6.10;;;;;;;2.70;90.07;100068.72;10461153;28;20045;-84
2023/03/04 22:00:32;;;;;;;7.50;6.00;;;;;;;3.36;90.33;100184.06;10460888;28;20053;-85
2023/03/04 22:05:38;;;;;;;11.27;7.90;;;;;;;2.61;90.60;100069.47;10443379;28;20404;-84
2023/03/04 22:10:39;;;;;;;9.90;7.25;;;;;;;3.32;90.18;100194.94;10459797;28;20182;-86
2023/03/04 22:15:42;;;;;;;11.35;8.55;;;;;;;2.58;90.46;100069.72;10460001;28;20049;-85
2023/03/04 22:20:43;;;;;;;12.23;8.57;;;;;;;2.96;90.53;100131.34;10460799;28;20063;-85
2023/03/04 22:25:44;;;;;;;12.18;8.93;;;;;;;2.55;90.52;100075.22;10460900;28;20501;-84
2023/03/04 22:30:45;;;;;;;14.77;11.43;;;;;;;3.19;90.81;100153.09;10459576;28;20087;-85
2023/03/04 22:35:46;;;;;;;15.68;11.60;;;;;;;3.67;92.24;100213.88;10442274;28;20059;-85
2023/03/04 22:40:47;;;;;;;16.48;11.55;;;;;;;3.67;92.61;100198.13;10459738;28;20552;-85
2023/03/04 22:45:49;;;;;;;13.52;9.80;;;;;;;3.75;91.77;100191.41;10459352;28;20048;-84
2023/03/04 22:50:49;;;;;;;15.55;12.10;;;;;;;3.84;91.58;100201.16;10458749;28;20559;-84
2023/03/04 22:55:56;;;;;;;15.02;10.95;;;;;;;3.38;92.12;100132.28;10458601;28;20080;-85
2023/03/04 23:00:57;;;;;;;16.63;12.57;;;;;;;3.84;91.54;100198.53;10459114;28;20045;-84
2023/03/04 23:06:06;;;;;;;15.07;11.00;;;;;;;3.80;92.78;100183.97;10440538;28;20140;-84
2023/03/04 23:11:13;;;;;;;17.25;12.02;;;;;;;3.82;92.22;100187.31;10458398;28;20102;-83
2023/03/04 23:16:15;;;;;;;15.43;11.60;;;;;;;3.91;92.06;100178.66;10458763;28;20071;-84
2023/03/04 23:21:19;;;;;;;15.75;12.40;;;;;;;3.86;92.40;100162.44;10457112;28;20045;-84
2023/03/04 23:26:26;;;;;;;16.63;11.43;;;;;;;4.05;92.89;100188.84;10456865;28;20080;-84
2023/03/04 23:31:28;;;;;;;17.05;11.98;;;;;;;3.09;92.75;100048.03;10456615;28;20049;-84
2023/03/04 23:36:32;;;;;;;16.48;11.98;;;;;;;3.46;92.78;100071.22;10457109;28;20056;-83
2023/03/04 23:41:34;;;;;;;18.70;12.77;;;;;;;4.12;92.87;100168.09;10439478;28;20412;-85